sensor_id;sensor_type;location;lat;lon;timestamp;temperature;humidity
1766;DHT22;880;52.452;8.656;2022-08-14T00:01:56;24.70;98.40
1766;DHT22;880;52.452;8.656;2022-08-14T00:04:28;24.70;98.40
1766;DHT22;880;52.452;8.656;2022-08-14T00:07:10;24.80;98.50
1766;DHT22;880;52.452;8.656;2022-08-14T00:09:43;24.80;98.30
1766;DHT22;880;52.452;8.656;2022-08-14T00:12:33;24.70;98.40
1766;DHT22;880;52.452;8.656;2022-08-14T00:15:30;24.50;98.60
1766;DHT22;880;52.452;8.656;2022-08-14T00:18:11;24.40;98.90
1766;DHT22;880;52.452;8.656;2022-08-14T00:20:59;24.40;99.30
1766;DHT22;880;52.452;8.656;2022-08-14T00:23:26;24.30;99.60
1766;DHT22;880;52.452;8.656;2022-08-14T00:25:54;24.30;99.90
1766;DHT22;880;52.452;8.656;2022-08-14T00:28:33;24.40;99.90
1766;DHT22;880;52.452;8.656;2022-08-14T00:31:04;24.50;99.80
1766;DHT22;880;52.452;8.656;2022-08-14T00:33:32;24.50;99.60
1766;DHT22;880;52.452;8.656;2022-08-14T00:36:20;24.70;99.60
1766;DHT22;880;52.452;8.656;2022-08-14T00:39:12;24.80;99.30
1766;DHT22;880;52.452;8.656;2022-08-14T00:41:47;24.90;98.70
1766;DHT22;880;52.452;8.656;2022-08-14T00:44:15;24.80;98.60
1766;DHT22;880;52.452;8.656;2022-08-14T00:46:53;24.60;99.20
1766;DHT22;880;52.452;8.656;2022-08-14T00:49:24;24.40;99.70
1766;DHT22;880;52.452;8.656;2022-08-14T00:51:52;24.40;99.90
1766;DHT22;880;52.452;8.656;2022-08-14T00:54:19;24.30;99.90
1766;DHT22;880;52.452;8.656;2022-08-14T00:56:50;24.40;99.90
1766;DHT22;880;52.452;8.656;2022-08-14T00:59:25;24.50;99.90
1766;DHT22;880;52.452;8.656;2022-08-14T01:01:57;24.60;99.80
1766;DHT22;880;52.452;8.656;2022-08-14T01:04:27;24.60;99.60
1766;DHT22;880;52.452;8.656;2022-08-14T01:07:18;24.60;99.70
1766;DHT22;880;52.452;8.656;2022-08-14T01:12:28;24.80;99.40
1766;DHT22;880;52.452;8.656;2022-08-14T01:14:57;24.80;99.30
1766;DHT22;880;52.452;8.656;2022-08-14T01:17:26;24.80;99.10
1766;DHT22;880;52.452;8.656;2022-08-14T01:20:16;24.90;99.00
1766;DHT22;880;52.452;8.656;2022-08-14T01:23:09;24.80;99.10
1766;DHT22;880;52.452;8.656;2022-08-14T01:25:47;24.80;99.00
1766;DHT22;880;52.452;8.656;2022-08-14T01:28:18;24.60;99.40
1766;DHT22;880;52.452;8.656;2022-08-14T01:31:11;24.30;99.80
1766;DHT22;880;52.452;8.656;2022-08-14T01:33:43;24.40;99.90
1766;DHT22;880;52.452;8.656;2022-08-14T01:36:33;24.20;99.90
1766;DHT22;880;52.452;8.656;2022-08-14T01:39:14;23.70;99.90
1766;DHT22;880;52.452;8.656;2022-08-14T01:41:47;23.50;99.90
1766;DHT22;880;52.452;8.656;2022-08-14T01:44:24;23.40;99.90
1766;DHT22;880;52.452;8.656;2022-08-14T01:47:03;23.30;99.90
1766;DHT22;880;52.452;8.656;2022-08-14T01:49:51;23.20;99.90
1766;DHT22;880;52.452;8.656;2022-08-14T01:52:34;23.20;99.90
1766;DHT22;880;52.452;8.656;2022-08-14T01:55:24;23.30;99.90
1766;DHT22;880;52.452;8.656;2022-08-14T01:57:59;23.40;99.90
1766;DHT22;880;52.452;8.656;2022-08-14T02:00:48;23.60;99.90
1766;DHT22;880;52.452;8.656;2022-08-14T02:03:27;23.60;99.90
1766;DHT22;880;52.452;8.656;2022-08-14T02:05:58;23.60;99.90
1766;DHT22;880;52.452;8.656;2022-08-14T02:08:46;23.60;99.90
1766;DHT22;880;52.452;8.656;2022-08-14T02:11:21;23.70;99.90
1766;DHT22;880;52.452;8.656;2022-08-14T02:13:59;23.80;99.90
1766;DHT22;880;52.452;8.656;2022-08-14T02:16:41;23.80;99.90
1766;DHT22;880;52.452;8.656;2022-08-14T02:19:14;23.80;99.90
1766;DHT22;880;52.452;8.656;2022-08-14T02:21:44;23.90;99.90
1766;DHT22;880;52.452;8.656;2022-08-14T02:24:17;23.90;99.90
1766;DHT22;880;52.452;8.656;2022-08-14T02:27:06;23.70;99.90
1766;DHT22;880;52.452;8.656;2022-08-14T02:29:55;23.40;99.90
1766;DHT22;880;52.452;8.656;2022-08-14T02:32:28;23.00;99.90
1766;DHT22;880;52.452;8.656;2022-08-14T02:35:08;22.80;99.90
1766;DHT22;880;52.452;8.656;2022-08-14T02:37:39;22.70;99.90
1766;DHT22;880;52.452;8.656;2022-08-14T02:40:18;22.50;99.90
1766;DHT22;880;52.452;8.656;2022-08-14T02:42:58;22.40;99.90
1766;DHT22;880;52.452;8.656;2022-08-14T02:45:26;22.30;99.90
1766;DHT22;880;52.452;8.656;2022-08-14T02:48:10;22.30;99.90
1766;DHT22;880;52.452;8.656;2022-08-14T02:50:59;22.50;99.90
1766;DHT22;880;52.452;8.656;2022-08-14T02:53:31;22.50;99.90
1766;DHT22;880;52.452;8.656;2022-08-14T02:56:04;22.60;99.90
1766;DHT22;880;52.452;8.656;2022-08-14T02:58:52;22.50;99.90
1766;DHT22;880;52.452;8.656;2022-08-14T03:01:25;22.60;99.90
1766;DHT22;880;52.452;8.656;2022-08-14T03:04:10;22.60;99.90
1766;DHT22;880;52.452;8.656;2022-08-14T03:06:38;22.90;99.90
1766;DHT22;880;52.452;8.656;2022-08-14T03:09:28;23.10;99.90
1766;DHT22;880;52.452;8.656;2022-08-14T03:12:15;23.10;99.90
1766;DHT22;880;52.452;8.656;2022-08-14T03:15:00;23.00;99.90
1766;DHT22;880;52.452;8.656;2022-08-14T03:17:41;23.10;99.90
1766;DHT22;880;52.452;8.656;2022-08-14T03:20:27;23.10;99.90
1766;DHT22;880;52.452;8.656;2022-08-14T03:22:57;23.20;99.90
1766;DHT22;880;52.452;8.656;2022-08-14T03:25:30;23.40;99.90
1766;DHT22;880;52.452;8.656;2022-08-14T03:28:02;23.40;99.90
1766;DHT22;880;52.452;8.656;2022-08-14T03:30:40;23.50;99.90
1766;DHT22;880;52.452;8.656;2022-08-14T03:33:10;23.60;99.90
1766;DHT22;880;52.452;8.656;2022-08-14T03:35:39;23.60;99.90
1766;DHT22;880;52.452;8.656;2022-08-14T03:38:27;23.50;99.90
1766;DHT22;880;52.452;8.656;2022-08-14T03:41:24;23.60;99.90
1766;DHT22;880;52.452;8.656;2022-08-14T03:43:57;23.60;99.90
1766;DHT22;880;52.452;8.656;2022-08-14T03:46:31;23.50;99.90
1766;DHT22;880;52.452;8.656;2022-08-14T03:49:21;23.50;99.90
1766;DHT22;880;52.452;8.656;2022-08-14T03:51:56;23.60;99.90
1766;DHT22;880;52.452;8.656;2022-08-14T03:54:26;23.60;99.90
1766;DHT22;880;52.452;8.656;2022-08-14T03:56:54;23.60;99.90
1766;DHT22;880;52.452;8.656;2022-08-14T03:59:29;23.60;99.90
1766;DHT22;880;52.452;8.656;2022-08-14T04:01:58;23.40;99.90
1766;DHT22;880;52.452;8.656;2022-08-14T04:04:29;23.10;99.90
1766;DHT22;880;52.452;8.656;2022-08-14T04:06:57;22.90;99.90
1766;DHT22;880;52.452;8.656;2022-08-14T04:09:26;22.90;99.90
1766;DHT22;880;52.452;8.656;2022-08-14T04:11:53;22.60;99.90
1766;DHT22;880;52.452;8.656;2022-08-14T04:14:23;22.30;99.90
1766;DHT22;880;52.452;8.656;2022-08-14T04:16:50;22.00;99.90
1766;DHT22;880;52.452;8.656;2022-08-14T04:19:18;21.80;99.90
1766;DHT22;880;52.452;8.656;2022-08-14T04:21:49;21.60;99.90
1766;DHT22;880;52.452;8.656;2022-08-14T04:24:30;21.40;99.90
1766;DHT22;880;52.452;8.656;2022-08-14T04:27:08;21.20;99.90
1766;DHT22;880;52.452;8.656;2022-08-14T04:29:41;21.10;99.90
1766;DHT22;880;52.452;8.656;2022-08-14T04:32:11;21.00;99.90
1766;DHT22;880;52.452;8.656;2022-08-14T04:35:02;21.00;99.90
1766;DHT22;880;52.452;8.656;2022-08-14T04:37:36;20.90;99.90
1766;DHT22;880;52.452;8.656;2022-08-14T04:40:22;20.80;99.90
1766;DHT22;880;52.452;8.656;2022-08-14T04:43:07;20.70;99.90
1766;DHT22;880;52.452;8.656;2022-08-14T04:46:07;20.70;99.90
1766;DHT22;880;52.452;8.656;2022-08-14T04:48:38;20.80;99.90
1766;DHT22;880;52.452;8.656;2022-08-14T04:51:19;20.80;99.90
1766;DHT22;880;52.452;8.656;2022-08-14T04:53:49;20.90;99.90
1766;DHT22;880;52.452;8.656;2022-08-14T04:56:20;20.90;99.90
1766;DHT22;880;52.452;8.656;2022-08-14T04:59:02;20.80;99.90
1766;DHT22;880;52.452;8.656;2022-08-14T05:01:35;20.80;99.90
1766;DHT22;880;52.452;8.656;2022-08-14T05:04:06;20.80;99.90
1766;DHT22;880;52.452;8.656;2022-08-14T05:06:40;20.90;99.90
1766;DHT22;880;52.452;8.656;2022-08-14T05:09:07;20.90;99.90
1766;DHT22;880;52.452;8.656;2022-08-14T05:11:40;20.90;99.90
1766;DHT22;880;52.452;8.656;2022-08-14T05:14:10;21.00;99.90
1766;DHT22;880;52.452;8.656;2022-08-14T05:16:58;21.10;99.90
1766;DHT22;880;52.452;8.656;2022-08-14T05:19:28;21.10;99.90
1766;DHT22;880;52.452;8.656;2022-08-14T05:21:59;21.20;99.90
1766;DHT22;880;52.452;8.656;2022-08-14T05:24:46;21.30;99.90
1766;DHT22;880;52.452;8.656;2022-08-14T05:27:16;21.20;99.90
1766;DHT22;880;52.452;8.656;2022-08-14T05:29:49;21.30;99.90
1766;DHT22;880;52.452;8.656;2022-08-14T05:32:23;21.20;99.90
1766;DHT22;880;52.452;8.656;2022-08-14T05:34:54;21.20;99.90
1766;DHT22;880;52.452;8.656;2022-08-14T05:37:24;21.30;99.90
1766;DHT22;880;52.452;8.656;2022-08-14T05:39:53;21.30;99.90
1766;DHT22;880;52.452;8.656;2022-08-14T05:42:21;21.40;99.90
1766;DHT22;880;52.452;8.656;2022-08-14T05:44:58;21.50;99.90
1766;DHT22;880;52.452;8.656;2022-08-14T05:47:25;21.50;99.90
1766;DHT22;880;52.452;8.656;2022-08-14T05:50:10;21.60;99.90
1766;DHT22;880;52.452;8.656;2022-08-14T05:52:45;21.60;99.90
1766;DHT22;880;52.452;8.656;2022-08-14T05:55:18;21.70;99.90
1766;DHT22;880;52.452;8.656;2022-08-14T05:58:01;21.70;99.90
1766;DHT22;880;52.452;8.656;2022-08-14T06:00:33;21.80;99.90
1766;DHT22;880;52.452;8.656;2022-08-14T06:03:08;21.90;99.90
1766;DHT22;880;52.452;8.656;2022-08-14T06:05:36;22.10;99.90
1766;DHT22;880;52.452;8.656;2022-08-14T06:08:05;22.40;99.90
1766;DHT22;880;52.452;8.656;2022-08-14T06:11:01;22.60;99.90
1766;DHT22;880;52.452;8.656;2022-08-14T06:13:33;23.00;99.90
1766;DHT22;880;52.452;8.656;2022-08-14T06:16:13;23.10;99.90
1766;DHT22;880;52.452;8.656;2022-08-14T06:18:45;23.30;99.90
1766;DHT22;880;52.452;8.656;2022-08-14T06:21:17;23.40;99.90
1766;DHT22;880;52.452;8.656;2022-08-14T06:23:44;23.60;99.90
1766;DHT22;880;52.452;8.656;2022-08-14T06:26:14;23.80;99.90
1766;DHT22;880;52.452;8.656;2022-08-14T06:28:46;23.90;99.90
1766;DHT22;880;52.452;8.656;2022-08-14T06:31:18;24.00;99.90
1766;DHT22;880;52.452;8.656;2022-08-14T06:33:46;24.10;99.90
1766;DHT22;880;52.452;8.656;2022-08-14T06:36:34;24.30;99.90
1766;DHT22;880;52.452;8.656;2022-08-14T06:39:05;24.50;99.90
1766;DHT22;880;52.452;8.656;2022-08-14T06:41:37;24.60;99.90
1766;DHT22;880;52.452;8.656;2022-08-14T06:44:26;24.70;99.90
1766;DHT22;880;52.452;8.656;2022-08-14T06:46:59;24.80;99.90
1766;DHT22;880;52.452;8.656;2022-08-14T06:49:28;25.00;99.90
1766;DHT22;880;52.452;8.656;2022-08-14T06:51:56;25.00;99.90
1766;DHT22;880;52.452;8.656;2022-08-14T06:54:23;25.00;99.90
1766;DHT22;880;52.452;8.656;2022-08-14T06:56:57;25.00;99.90
1766;DHT22;880;52.452;8.656;2022-08-14T06:59:24;25.00;99.90
1766;DHT22;880;52.452;8.656;2022-08-14T07:01:52;25.10;99.90
1766;DHT22;880;52.452;8.656;2022-08-14T07:04:43;25.20;99.90
1766;DHT22;880;52.452;8.656;2022-08-14T07:07:39;25.30;99.90
1766;DHT22;880;52.452;8.656;2022-08-14T07:10:08;25.40;99.90
1766;DHT22;880;52.452;8.656;2022-08-14T07:12:44;25.60;99.90
1766;DHT22;880;52.452;8.656;2022-08-14T07:15:29;25.80;99.90
1766;DHT22;880;52.452;8.656;2022-08-14T07:17:58;26.00;99.90
1766;DHT22;880;52.452;8.656;2022-08-14T07:20:26;26.20;99.90
1766;DHT22;880;52.452;8.656;2022-08-14T07:22:58;26.30;99.90
1766;DHT22;880;52.452;8.656;2022-08-14T07:25:38;26.30;99.90
1766;DHT22;880;52.452;8.656;2022-08-14T07:28:17;26.30;99.90
1766;DHT22;880;52.452;8.656;2022-08-14T07:30:47;26.30;99.90
1766;DHT22;880;52.452;8.656;2022-08-14T07:33:18;26.30;99.90
1766;DHT22;880;52.452;8.656;2022-08-14T07:35:56;26.40;99.90
1766;DHT22;880;52.452;8.656;2022-08-14T07:38:27;26.50;99.90
1766;DHT22;880;52.452;8.656;2022-08-14T07:41:03;26.60;99.90
1766;DHT22;880;52.452;8.656;2022-08-14T07:43:41;26.60;99.90
1766;DHT22;880;52.452;8.656;2022-08-14T07:46:13;26.60;99.90
1766;DHT22;880;52.452;8.656;2022-08-14T07:48:46;26.70;99.90
1766;DHT22;880;52.452;8.656;2022-08-14T07:51:14;26.70;99.90
1766;DHT22;880;52.452;8.656;2022-08-14T07:53:41;26.70;99.90
1766;DHT22;880;52.452;8.656;2022-08-14T07:56:08;26.80;99.90
1766;DHT22;880;52.452;8.656;2022-08-14T07:58:58;26.90;99.90
1766;DHT22;880;52.452;8.656;2022-08-14T08:01:27;27.00;99.90
1766;DHT22;880;52.452;8.656;2022-08-14T08:03:57;27.10;99.90
1766;DHT22;880;52.452;8.656;2022-08-14T08:06:28;27.20;99.90
1766;DHT22;880;52.452;8.656;2022-08-14T08:08:58;27.30;99.90
1766;DHT22;880;52.452;8.656;2022-08-14T08:11:33;27.50;99.90
1766;DHT22;880;52.452;8.656;2022-08-14T08:14:05;27.60;99.90
1766;DHT22;880;52.452;8.656;2022-08-14T08:16:44;27.70;99.90
1766;DHT22;880;52.452;8.656;2022-08-14T08:19:17;27.80;99.90
1766;DHT22;880;52.452;8.656;2022-08-14T08:21:44;27.90;99.90
1766;DHT22;880;52.452;8.656;2022-08-14T08:24:13;27.80;99.90
1766;DHT22;880;52.452;8.656;2022-08-14T08:26:47;27.90;99.90
1766;DHT22;880;52.452;8.656;2022-08-14T08:29:20;27.80;99.90
1766;DHT22;880;52.452;8.656;2022-08-14T08:31:55;28.00;99.90
1766;DHT22;880;52.452;8.656;2022-08-14T08:34:44;28.10;99.80
1766;DHT22;880;52.452;8.656;2022-08-14T08:37:13;28.20;99.30
1766;DHT22;880;52.452;8.656;2022-08-14T08:39:45;28.30;99.60
1766;DHT22;880;52.452;8.656;2022-08-14T08:42:29;28.30;98.80
1766;DHT22;880;52.452;8.656;2022-08-14T08:45:09;28.40;98.60
1766;DHT22;880;52.452;8.656;2022-08-14T08:47:41;28.30;98.10
1766;DHT22;880;52.452;8.656;2022-08-14T08:50:21;28.20;98.60
1766;DHT22;880;52.452;8.656;2022-08-14T08:53:02;28.30;98.20
1766;DHT22;880;52.452;8.656;2022-08-14T08:55:37;28.50;98.40
1766;DHT22;880;52.452;8.656;2022-08-14T08:58:07;28.70;97.60
1766;DHT22;880;52.452;8.656;2022-08-14T09:00:48;28.80;97.10
1766;DHT22;880;52.452;8.656;2022-08-14T09:03:24;28.90;96.70
1766;DHT22;880;52.452;8.656;2022-08-14T09:06:01;28.90;96.60
1766;DHT22;880;52.452;8.656;2022-08-14T09:08:51;29.00;96.20
1766;DHT22;880;52.452;8.656;2022-08-14T09:11:18;29.10;96.80
1766;DHT22;880;52.452;8.656;2022-08-14T09:13:51;29.30;95.80
1766;DHT22;880;52.452;8.656;2022-08-14T09:16:23;29.30;95.30
1766;DHT22;880;52.452;8.656;2022-08-14T09:18:52;29.20;95.20
1766;DHT22;880;52.452;8.656;2022-08-14T09:21:21;29.10;95.40
1766;DHT22;880;52.452;8.656;2022-08-14T09:23:52;29.00;95.60
1766;DHT22;880;52.452;8.656;2022-08-14T09:26:42;28.90;95.60
1766;DHT22;880;52.452;8.656;2022-08-14T09:29:16;29.10;95.60
1766;DHT22;880;52.452;8.656;2022-08-14T09:31:52;29.10;95.80
1766;DHT22;880;52.452;8.656;2022-08-14T09:34:53;29.30;95.10
1766;DHT22;880;52.452;8.656;2022-08-14T09:43:44;29.60;94.00
1766;DHT22;880;52.452;8.656;2022-08-14T09:46:21;29.70;94.40
1766;DHT22;880;52.452;8.656;2022-08-14T09:49:00;29.80;93.40
1766;DHT22;880;52.452;8.656;2022-08-14T09:51:29;30.00;93.80
1766;DHT22;880;52.452;8.656;2022-08-14T09:54:10;30.30;92.70
1766;DHT22;880;52.452;8.656;2022-08-14T09:56:50;30.40;91.80
1766;DHT22;880;52.452;8.656;2022-08-14T09:59:25;30.60;91.60
1766;DHT22;880;52.452;8.656;2022-08-14T10:01:57;30.80;90.90
1766;DHT22;880;52.452;8.656;2022-08-14T10:04:26;30.80;90.50
1766;DHT22;880;52.452;8.656;2022-08-14T10:07:00;30.80;89.80
1766;DHT22;880;52.452;8.656;2022-08-14T10:09:29;30.70;88.60
1766;DHT22;880;52.452;8.656;2022-08-14T10:12:01;30.50;89.20
1766;DHT22;880;52.452;8.656;2022-08-14T10:14:32;30.40;90.40
1766;DHT22;880;52.452;8.656;2022-08-14T10:17:04;30.30;90.70
1766;DHT22;880;52.452;8.656;2022-08-14T10:19:34;30.30;90.50
1766;DHT22;880;52.452;8.656;2022-08-14T10:22:07;30.30;90.60
1766;DHT22;880;52.452;8.656;2022-08-14T10:24:56;30.20;90.80
1766;DHT22;880;52.452;8.656;2022-08-14T10:27:26;30.30;90.80
1766;DHT22;880;52.452;8.656;2022-08-14T10:29:56;30.50;90.40
1766;DHT22;880;52.452;8.656;2022-08-14T10:32:27;30.70;90.20
1766;DHT22;880;52.452;8.656;2022-08-14T10:35:15;30.80;89.00
1766;DHT22;880;52.452;8.656;2022-08-14T10:37:47;31.00;89.40
1766;DHT22;880;52.452;8.656;2022-08-14T10:40:26;31.10;88.80
1766;DHT22;880;52.452;8.656;2022-08-14T10:43:19;31.20;87.30
1766;DHT22;880;52.452;8.656;2022-08-14T10:45:59;31.20;86.30
1766;DHT22;880;52.452;8.656;2022-08-14T10:49:01;31.10;87.10
1766;DHT22;880;52.452;8.656;2022-08-14T10:51:32;31.10;87.20
1766;DHT22;880;52.452;8.656;2022-08-14T10:54:05;31.30;86.00
1766;DHT22;880;52.452;8.656;2022-08-14T10:56:54;31.30;85.20
1766;DHT22;880;52.452;8.656;2022-08-14T10:59:21;31.30;83.90
1766;DHT22;880;52.452;8.656;2022-08-14T11:02:23;31.20;85.50
1766;DHT22;880;52.452;8.656;2022-08-14T11:05:17;31.40;83.00
1766;DHT22;880;52.452;8.656;2022-08-14T11:13:08;31.10;83.20
1766;DHT22;880;52.452;8.656;2022-08-14T11:15:35;31.20;82.80
1766;DHT22;880;52.452;8.656;2022-08-14T11:18:03;31.20;82.30
1766;DHT22;880;52.452;8.656;2022-08-14T11:20:31;31.20;82.40
1766;DHT22;880;52.452;8.656;2022-08-14T11:23:00;31.20;81.20
1766;DHT22;880;52.452;8.656;2022-08-14T11:25:29;31.10;81.30
1766;DHT22;880;52.452;8.656;2022-08-14T11:28:11;31.20;81.50
1766;DHT22;880;52.452;8.656;2022-08-14T11:30:47;31.30;80.50
1766;DHT22;880;52.452;8.656;2022-08-14T11:33:27;31.30;80.00
1766;DHT22;880;52.452;8.656;2022-08-14T11:36:00;31.50;80.50
1766;DHT22;880;52.452;8.656;2022-08-14T11:38:44;31.60;78.40
1766;DHT22;880;52.452;8.656;2022-08-14T11:41:13;31.60;79.00
1766;DHT22;880;52.452;8.656;2022-08-14T11:43:45;31.70;78.20
1766;DHT22;880;52.452;8.656;2022-08-14T11:46:25;32.00;78.80
1766;DHT22;880;52.452;8.656;2022-08-14T11:48:56;32.40;77.60
1766;DHT22;880;52.452;8.656;2022-08-14T11:51:30;32.40;73.30
1766;DHT22;880;52.452;8.656;2022-08-14T11:54:17;32.30;72.20
1766;DHT22;880;52.452;8.656;2022-08-14T11:56:45;32.40;72.60
1766;DHT22;880;52.452;8.656;2022-08-14T11:59:18;32.60;73.10
1766;DHT22;880;52.452;8.656;2022-08-14T12:02:16;32.80;73.30
1766;DHT22;880;52.452;8.656;2022-08-14T12:05:04;32.70;72.80
1766;DHT22;880;52.452;8.656;2022-08-14T12:07:35;32.30;73.80
1766;DHT22;880;52.452;8.656;2022-08-14T12:10:17;32.30;73.50
1766;DHT22;880;52.452;8.656;2022-08-14T12:13:16;32.10;73.00
1766;DHT22;880;52.452;8.656;2022-08-14T12:15:57;31.70;73.80
1766;DHT22;880;52.452;8.656;2022-08-14T12:18:37;31.60;74.70
1766;DHT22;880;52.452;8.656;2022-08-14T12:24:01;31.30;74.80
1766;DHT22;880;52.452;8.656;2022-08-14T12:26:29;31.20;75.00
1766;DHT22;880;52.452;8.656;2022-08-14T12:29:11;31.30;74.80
1766;DHT22;880;52.452;8.656;2022-08-14T12:31:42;31.40;74.20
1766;DHT22;880;52.452;8.656;2022-08-14T12:34:15;31.40;73.40
1766;DHT22;880;52.452;8.656;2022-08-14T12:36:46;31.50;72.80
1766;DHT22;880;52.452;8.656;2022-08-14T12:39:19;31.30;73.90
1766;DHT22;880;52.452;8.656;2022-08-14T12:41:54;31.30;75.00
1766;DHT22;880;52.452;8.656;2022-08-14T12:44:35;31.50;74.50
1766;DHT22;880;52.452;8.656;2022-08-14T12:47:07;31.70;73.00
1766;DHT22;880;52.452;8.656;2022-08-14T12:49:53;31.60;73.50
1766;DHT22;880;52.452;8.656;2022-08-14T12:52:29;31.60;72.90
1766;DHT22;880;52.452;8.656;2022-08-14T12:55:17;31.90;73.50
1766;DHT22;880;52.452;8.656;2022-08-14T12:57:47;32.00;72.80
1766;DHT22;880;52.452;8.656;2022-08-14T13:00:21;31.90;72.20
1766;DHT22;880;52.452;8.656;2022-08-14T13:02:53;31.90;72.10
1766;DHT22;880;52.452;8.656;2022-08-14T13:05:24;32.00;71.40
1766;DHT22;880;52.452;8.656;2022-08-14T13:07:55;32.40;70.60
1766;DHT22;880;52.452;8.656;2022-08-14T13:10:25;32.70;69.60
1766;DHT22;880;52.452;8.656;2022-08-14T13:13:15;32.90;69.00
1766;DHT22;880;52.452;8.656;2022-08-14T13:15:48;32.60;68.70
1766;DHT22;880;52.452;8.656;2022-08-14T13:18:24;32.30;69.10
1766;DHT22;880;52.452;8.656;2022-08-14T13:20:55;32.20;70.70
1766;DHT22;880;52.452;8.656;2022-08-14T13:23:31;32.30;68.80
1766;DHT22;880;52.452;8.656;2022-08-14T13:26:03;32.30;68.60
1766;DHT22;880;52.452;8.656;2022-08-14T13:28:31;32.30;68.80
1766;DHT22;880;52.452;8.656;2022-08-14T13:31:24;32.50;68.60
1766;DHT22;880;52.452;8.656;2022-08-14T13:33:56;32.90;67.60
1766;DHT22;880;52.452;8.656;2022-08-14T13:36:25;33.00;67.30
1766;DHT22;880;52.452;8.656;2022-08-14T13:39:15;33.00;67.10
1766;DHT22;880;52.452;8.656;2022-08-14T13:41:43;33.10;66.30
1766;DHT22;880;52.452;8.656;2022-08-14T13:44:16;33.20;67.10
1766;DHT22;880;52.452;8.656;2022-08-14T13:46:49;33.50;65.10
1766;DHT22;880;52.452;8.656;2022-08-14T13:49:17;33.70;63.10
1766;DHT22;880;52.452;8.656;2022-08-14T13:51:51;33.80;61.50
1766;DHT22;880;52.452;8.656;2022-08-14T13:54:19;33.90;61.30
1766;DHT22;880;52.452;8.656;2022-08-14T13:56:48;34.00;60.50
1766;DHT22;880;52.452;8.656;2022-08-14T13:59:16;33.90;60.50
1766;DHT22;880;52.452;8.656;2022-08-14T14:02:05;34.20;59.80
1766;DHT22;880;52.452;8.656;2022-08-14T14:04:38;34.20;59.90
1766;DHT22;880;52.452;8.656;2022-08-14T14:07:18;34.20;59.10
1766;DHT22;880;52.452;8.656;2022-08-14T14:09:50;33.70;59.40
1766;DHT22;880;52.452;8.656;2022-08-14T14:12:19;33.60;59.80
1766;DHT22;880;52.452;8.656;2022-08-14T14:15:11;33.60;60.20
1766;DHT22;880;52.452;8.656;2022-08-14T14:17:43;33.80;60.50
1766;DHT22;880;52.452;8.656;2022-08-14T14:20:16;34.00;59.90
1766;DHT22;880;52.452;8.656;2022-08-14T14:23:02;34.10;58.10
1766;DHT22;880;52.452;8.656;2022-08-14T14:25:40;33.90;57.50
1766;DHT22;880;52.452;8.656;2022-08-14T14:28:15;33.80;58.10
1766;DHT22;880;52.452;8.656;2022-08-14T14:30:51;33.70;57.50
1766;DHT22;880;52.452;8.656;2022-08-14T14:33:24;33.60;57.70
1766;DHT22;880;52.452;8.656;2022-08-14T14:36:11;33.40;58.10
1766;DHT22;880;52.452;8.656;2022-08-14T14:38:40;33.30;58.60
1766;DHT22;880;52.452;8.656;2022-08-14T14:41:12;33.40;58.50
1766;DHT22;880;52.452;8.656;2022-08-14T14:43:48;33.40;58.50
1766;DHT22;880;52.452;8.656;2022-08-14T14:46:19;33.60;58.90
1766;DHT22;880;52.452;8.656;2022-08-14T14:48:47;33.50;58.50
1766;DHT22;880;52.452;8.656;2022-08-14T14:51:20;33.40;58.60
1766;DHT22;880;52.452;8.656;2022-08-14T14:53:47;33.30;59.30
1766;DHT22;880;52.452;8.656;2022-08-14T14:56:15;33.10;59.80
1766;DHT22;880;52.452;8.656;2022-08-14T14:59:02;33.20;60.40
1766;DHT22;880;52.452;8.656;2022-08-14T15:01:34;33.30;60.10
1766;DHT22;880;52.452;8.656;2022-08-14T15:04:02;33.40;59.90
1766;DHT22;880;52.452;8.656;2022-08-14T15:06:45;33.40;59.50
1766;DHT22;880;52.452;8.656;2022-08-14T15:09:13;33.40;59.20
1766;DHT22;880;52.452;8.656;2022-08-14T15:11:44;33.40;58.60
1766;DHT22;880;52.452;8.656;2022-08-14T15:14:13;33.40;58.40
1766;DHT22;880;52.452;8.656;2022-08-14T15:17:00;33.40;58.90
1766;DHT22;880;52.452;8.656;2022-08-14T15:19:27;33.50;59.00
1766;DHT22;880;52.452;8.656;2022-08-14T15:21:56;33.60;59.00
1766;DHT22;880;52.452;8.656;2022-08-14T15:24:23;33.70;58.60
1766;DHT22;880;52.452;8.656;2022-08-14T15:26:53;33.80;58.60
1766;DHT22;880;52.452;8.656;2022-08-14T15:29:24;33.80;58.60
1766;DHT22;880;52.452;8.656;2022-08-14T15:31:52;33.80;58.00
1766;DHT22;880;52.452;8.656;2022-08-14T15:34:19;33.70;58.00
1766;DHT22;880;52.452;8.656;2022-08-14T15:37:07;33.80;58.10
1766;DHT22;880;52.452;8.656;2022-08-14T15:39:39;33.60;58.00
1766;DHT22;880;52.452;8.656;2022-08-14T15:42:08;33.40;58.60
1766;DHT22;880;52.452;8.656;2022-08-14T15:44:46;33.40;58.50
1766;DHT22;880;52.452;8.656;2022-08-14T15:47:29;33.40;58.40
1766;DHT22;880;52.452;8.656;2022-08-14T15:49:58;33.40;58.90
1766;DHT22;880;52.452;8.656;2022-08-14T15:52:31;33.50;58.70
1766;DHT22;880;52.452;8.656;2022-08-14T15:55:06;33.50;58.30
1766;DHT22;880;52.452;8.656;2022-08-14T15:57:39;33.40;58.10
1766;DHT22;880;52.452;8.656;2022-08-14T16:00:26;33.20;58.40
1766;DHT22;880;52.452;8.656;2022-08-14T16:03:15;33.10;58.70
1766;DHT22;880;52.452;8.656;2022-08-14T16:05:53;33.10;58.50
1766;DHT22;880;52.452;8.656;2022-08-14T16:08:22;33.00;58.70
1766;DHT22;880;52.452;8.656;2022-08-14T16:10:59;33.10;58.90
1766;DHT22;880;52.452;8.656;2022-08-14T16:13:29;33.20;58.20
1766;DHT22;880;52.452;8.656;2022-08-14T16:19:05;33.30;57.80
1766;DHT22;880;52.452;8.656;2022-08-14T16:21:38;33.30;57.80
1766;DHT22;880;52.452;8.656;2022-08-14T16:24:06;33.30;57.90
1766;DHT22;880;52.452;8.656;2022-08-14T16:26:56;33.40;57.90
1766;DHT22;880;52.452;8.656;2022-08-14T16:29:28;33.50;57.90
1766;DHT22;880;52.452;8.656;2022-08-14T16:32:00;33.30;57.80
1766;DHT22;880;52.452;8.656;2022-08-14T16:34:47;33.30;58.10
1766;DHT22;880;52.452;8.656;2022-08-14T16:37:21;33.10;58.00
1766;DHT22;880;52.452;8.656;2022-08-14T16:39:57;32.90;58.50
1766;DHT22;880;52.452;8.656;2022-08-14T16:42:25;32.60;58.60
1766;DHT22;880;52.452;8.656;2022-08-14T16:45:16;32.50;59.30
1766;DHT22;880;52.452;8.656;2022-08-14T16:47:44;32.40;59.60
1766;DHT22;880;52.452;8.656;2022-08-14T16:50:16;32.30;60.00
1766;DHT22;880;52.452;8.656;2022-08-14T16:53:03;32.00;60.60
1766;DHT22;880;52.452;8.656;2022-08-14T16:55:35;31.80;61.10
1766;DHT22;880;52.452;8.656;2022-08-14T16:58:22;31.70;61.30
1766;DHT22;880;52.452;8.656;2022-08-14T17:01:18;31.60;61.80
1766;DHT22;880;52.452;8.656;2022-08-14T17:03:54;31.50;62.20
1766;DHT22;880;52.452;8.656;2022-08-14T17:06:38;31.50;62.40
1766;DHT22;880;52.452;8.656;2022-08-14T17:12:24;31.50;62.90
1766;DHT22;880;52.452;8.656;2022-08-14T17:15:12;31.50;62.90
1766;DHT22;880;52.452;8.656;2022-08-14T17:17:46;31.50;62.70
1766;DHT22;880;52.452;8.656;2022-08-14T17:20:23;31.50;62.90
1766;DHT22;880;52.452;8.656;2022-08-14T17:23:10;31.40;62.70
1766;DHT22;880;52.452;8.656;2022-08-14T17:25:39;31.40;63.00
1766;DHT22;880;52.452;8.656;2022-08-14T17:28:20;31.30;63.20
1766;DHT22;880;52.452;8.656;2022-08-14T17:31:09;31.30;63.60
1766;DHT22;880;52.452;8.656;2022-08-14T17:33:38;31.30;63.90
1766;DHT22;880;52.452;8.656;2022-08-14T17:39:18;31.20;63.20
1766;DHT22;880;52.452;8.656;2022-08-14T17:41:51;31.20;63.40